sensor_id;sensor_type;location;lat;lon;timestamp;P1;durP1;ratioP1;P2;durP2;ratioP2
13432;SDS011;6789;47.678;9.158;2023-04-21T00:03:17;3.00;;;1.97;;
13432;SDS011;6789;47.678;9.158;2023-04-21T00:08:11;2.50;;;1.90;;
13432;SDS011;6789;47.678;9.158;2023-04-21T00:13:04;2.90;;;2.00;;
13432;SDS011;6789;47.678;9.158;2023-04-21T00:17:55;4.03;;;2.20;;
13432;SDS011;6789;47.678;9.158;2023-04-21T00:22:49;2.90;;;2.10;;
13432;SDS011;6789;47.678;9.158;2023-04-21T00:27:42;2.90;;;2.00;;
13432;SDS011;6789;47.678;9.158;2023-04-21T00:32:34;2.87;;;2.17;;
13432;SDS011;6789;47.678;9.158;2023-04-21T00:37:26;4.40;;;2.23;;
13432;SDS011;6789;47.678;9.158;2023-04-21T00:42:17;2.77;;;2.30;;
13432;SDS011;6789;47.678;9.158;2023-04-21T00:47:09;2.80;;;2.43;;
13432;SDS011;6789;47.678;9.158;2023-04-21T00:52:03;3.73;;;2.13;;
13432;SDS011;6789;47.678;9.158;2023-04-21T00:56:56;5.00;;;2.50;;
13432;SDS011;6789;47.678;9.158;2023-04-21T01:01:48;5.00;;;2.63;;
13432;SDS011;6789;47.678;9.158;2023-04-21T01:06:42;4.43;;;2.53;;
13432;SDS011;6789;47.678;9.158;2023-04-21T01:11:35;3.37;;;2.30;;
13432;SDS011;6789;47.678;9.158;2023-04-21T01:16:26;3.20;;;2.50;;
13432;SDS011;6789;47.678;9.158;2023-04-21T01:21:19;3.33;;;2.80;;
13432;SDS011;6789;47.678;9.158;2023-04-21T01:26:12;2.83;;;2.20;;
13432;SDS011;6789;47.678;9.158;2023-04-21T01:31:04;3.97;;;2.70;;
13432;SDS011;6789;47.678;9.158;2023-04-21T01:35:56;2.40;;;2.07;;
13432;SDS011;6789;47.678;9.158;2023-04-21T01:40:50;3.37;;;2.50;;
13432;SDS011;6789;47.678;9.158;2023-04-21T01:45:44;3.40;;;2.60;;
13432;SDS011;6789;47.678;9.158;2023-04-21T01:50:40;5.47;;;2.53;;
13432;SDS011;6789;47.678;9.158;2023-04-21T01:55:31;3.67;;;2.20;;
13432;SDS011;6789;47.678;9.158;2023-04-21T02:00:24;3.50;;;2.43;;
13432;SDS011;6789;47.678;9.158;2023-04-21T02:05:16;3.20;;;2.50;;
13432;SDS011;6789;47.678;9.158;2023-04-21T02:10:09;3.00;;;2.43;;
13432;SDS011;6789;47.678;9.158;2023-04-21T02:15:02;6.60;;;2.30;;
13432;SDS011;6789;47.678;9.158;2023-04-21T02:19:54;2.27;;;2.07;;
13432;SDS011;6789;47.678;9.158;2023-04-21T02:24:46;2.67;;;2.23;;
13432;SDS011;6789;47.678;9.158;2023-04-21T02:29:38;3.03;;;2.40;;
13432;SDS011;6789;47.678;9.158;2023-04-21T02:34:30;3.20;;;2.63;;
13432;SDS011;6789;47.678;9.158;2023-04-21T02:39:22;3.80;;;2.47;;
13432;SDS011;6789;47.678;9.158;2023-04-21T02:44:14;4.77;;;2.53;;
13432;SDS011;6789;47.678;9.158;2023-04-21T02:49:06;4.80;;;2.83;;
13432;SDS011;6789;47.678;9.158;2023-04-21T02:53:58;3.87;;;2.80;;
13432;SDS011;6789;47.678;9.158;2023-04-21T02:58:50;5.13;;;2.83;;
13432;SDS011;6789;47.678;9.158;2023-04-21T03:03:41;4.03;;;2.60;;
13432;SDS011;6789;47.678;9.158;2023-04-21T03:08:49;3.43;;;2.50;;
13432;SDS011;6789;47.678;9.158;2023-04-21T03:13:42;4.33;;;2.87;;
13432;SDS011;6789;47.678;9.158;2023-04-21T03:18:34;3.37;;;2.50;;
13432;SDS011;6789;47.678;9.158;2023-04-21T03:23:26;6.27;;;3.40;;
13432;SDS011;6789;47.678;9.158;2023-04-21T03:28:21;4.40;;;3.33;;
13432;SDS011;6789;47.678;9.158;2023-04-21T03:33:12;4.00;;;2.80;;
13432;SDS011;6789;47.678;9.158;2023-04-21T03:38:04;6.77;;;3.73;;
13432;SDS011;6789;47.678;9.158;2023-04-21T03:42:56;5.07;;;3.40;;
13432;SDS011;6789;47.678;9.158;2023-04-21T03:47:48;5.67;;;4.17;;
13432;SDS011;6789;47.678;9.158;2023-04-21T03:52:44;6.90;;;3.90;;
13432;SDS011;6789;47.678;9.158;2023-04-21T03:57:37;4.77;;;3.60;;
13432;SDS011;6789;47.678;9.158;2023-04-21T04:02:31;5.43;;;4.00;;
13432;SDS011;6789;47.678;9.158;2023-04-21T04:07:24;5.73;;;4.23;;
13432;SDS011;6789;47.678;9.158;2023-04-21T04:12:16;6.27;;;4.53;;
13432;SDS011;6789;47.678;9.158;2023-04-21T04:17:07;6.57;;;4.60;;
13432;SDS011;6789;47.678;9.158;2023-04-21T04:21:59;7.97;;;5.43;;
13432;SDS011;6789;47.678;9.158;2023-04-21T04:26:51;9.70;;;5.77;;
13432;SDS011;6789;47.678;9.158;2023-04-21T04:31:44;9.20;;;5.70;;
13432;SDS011;6789;47.678;9.158;2023-04-21T04:36:40;8.27;;;5.57;;
13432;SDS011;6789;47.678;9.158;2023-04-21T04:41:34;7.23;;;5.03;;
13432;SDS011;6789;47.678;9.158;2023-04-21T04:46:30;9.03;;;5.93;;
13432;SDS011;6789;47.678;9.158;2023-04-21T04:51:22;7.20;;;5.10;;
13432;SDS011;6789;47.678;9.158;2023-04-21T04:56:14;8.30;;;5.93;;
13432;SDS011;6789;47.678;9.158;2023-04-21T05:01:12;9.00;;;5.60;;
13432;SDS011;6789;47.678;9.158;2023-04-21T05:06:07;7.60;;;5.70;;
13432;SDS011;6789;47.678;9.158;2023-04-21T05:11:00;7.63;;;5.87;;
13432;SDS011;6789;47.678;9.158;2023-04-21T05:15:56;10.53;;;6.80;;
13432;SDS011;6789;47.678;9.158;2023-04-21T05:20:48;8.67;;;6.00;;
13432;SDS011;6789;47.678;9.158;2023-04-21T05:25:40;8.17;;;5.87;;
13432;SDS011;6789;47.678;9.158;2023-04-21T05:30:32;8.23;;;6.00;;
13432;SDS011;6789;47.678;9.158;2023-04-21T05:35:23;7.17;;;5.40;;
13432;SDS011;6789;47.678;9.158;2023-04-21T05:40:17;7.87;;;5.90;;
13432;SDS011;6789;47.678;9.158;2023-04-21T05:45:09;9.23;;;6.33;;
13432;SDS011;6789;47.678;9.158;2023-04-21T05:50:01;8.00;;;5.90;;
13432;SDS011;6789;47.678;9.158;2023-04-21T05:54:53;9.33;;;6.90;;
13432;SDS011;6789;47.678;9.158;2023-04-21T05:59:59;9.10;;;6.77;;
13432;SDS011;6789;47.678;9.158;2023-04-21T06:04:50;9.57;;;6.37;;
13432;SDS011;6789;47.678;9.158;2023-04-21T06:09:43;9.07;;;6.57;;
13432;SDS011;6789;47.678;9.158;2023-04-21T06:14:40;8.40;;;6.40;;
13432;SDS011;6789;47.678;9.158;2023-04-21T06:19:45;7.87;;;5.73;;
13432;SDS011;6789;47.678;9.158;2023-04-21T06:24:43;7.20;;;5.53;;
13432;SDS011;6789;47.678;9.158;2023-04-21T06:29:52;5.63;;;4.67;;
13432;SDS011;6789;47.678;9.158;2023-04-21T06:34:56;4.80;;;3.50;;
13432;SDS011;6789;47.678;9.158;2023-04-21T06:39:49;5.97;;;3.70;;
13432;SDS011;6789;47.678;9.158;2023-04-21T06:44:45;7.50;;;3.63;;
13432;SDS011;6789;47.678;9.158;2023-04-21T06:49:40;4.20;;;3.30;;
13432;SDS011;6789;47.678;9.158;2023-04-21T06:54:32;5.03;;;3.70;;
13432;SDS011;6789;47.678;9.158;2023-04-21T06:59:24;2.97;;;2.53;;
13432;SDS011;6789;47.678;9.158;2023-04-21T07:04:17;4.10;;;2.70;;
13432;SDS011;6789;47.678;9.158;2023-04-21T07:09:09;6.00;;;3.60;;
13432;SDS011;6789;47.678;9.158;2023-04-21T07:14:01;3.87;;;2.70;;
13432;SDS011;6789;47.678;9.158;2023-04-21T07:18:53;3.03;;;2.20;;
13432;SDS011;6789;47.678;9.158;2023-04-21T07:23:47;5.07;;;2.40;;
13432;SDS011;6789;47.678;9.158;2023-04-21T07:28:39;3.93;;;2.40;;
13432;SDS011;6789;47.678;9.158;2023-04-21T07:33:32;3.43;;;3.13;;
13432;SDS011;6789;47.678;9.158;2023-04-21T07:38:24;3.77;;;2.87;;
13432;SDS011;6789;47.678;9.158;2023-04-21T07:43:18;5.53;;;3.43;;
13432;SDS011;6789;47.678;9.158;2023-04-21T07:48:10;2.63;;;2.40;;
13432;SDS011;6789;47.678;9.158;2023-04-21T07:53:02;2.60;;;2.40;;
13432;SDS011;6789;47.678;9.158;2023-04-21T07:57:54;2.77;;;2.13;;
13432;SDS011;6789;47.678;9.158;2023-04-21T08:02:46;3.93;;;2.33;;
13432;SDS011;6789;47.678;9.158;2023-04-21T08:07:52;2.30;;;2.00;;
13432;SDS011;6789;47.678;9.158;2023-04-21T08:12:46;2.70;;;2.43;;
13432;SDS011;6789;47.678;9.158;2023-04-21T08:17:52;3.10;;;2.50;;
13432;SDS011;6789;47.678;9.158;2023-04-21T08:22:46;4.17;;;3.77;;
13432;SDS011;6789;47.678;9.158;2023-04-21T08:27:38;3.87;;;3.47;;
13432;SDS011;6789;47.678;9.158;2023-04-21T08:32:31;4.47;;;3.17;;
13432;SDS011;6789;47.678;9.158;2023-04-21T08:37:23;3.80;;;3.10;;
13432;SDS011;6789;47.678;9.158;2023-04-21T08:42:16;3.80;;;3.13;;
13432;SDS011;6789;47.678;9.158;2023-04-21T08:47:09;4.80;;;3.30;;
13432;SDS011;6789;47.678;9.158;2023-04-21T08:52:03;3.60;;;3.00;;
13432;SDS011;6789;47.678;9.158;2023-04-21T08:56:56;3.60;;;2.97;;
13432;SDS011;6789;47.678;9.158;2023-04-21T09:02:09;4.53;;;2.90;;
13432;SDS011;6789;47.678;9.158;2023-04-21T09:12:24;4.45;;;3.78;;
13432;SDS011;6789;47.678;9.158;2023-04-21T09:17:17;4.33;;;3.10;;
13432;SDS011;6789;47.678;9.158;2023-04-21T09:22:13;3.42;;;2.55;;
13432;SDS011;6789;47.678;9.158;2023-04-21T09:27:21;4.47;;;3.28;;
13432;SDS011;6789;47.678;9.158;2023-04-21T09:32:17;3.63;;;3.13;;
13432;SDS011;6789;47.678;9.158;2023-04-21T09:37:11;3.70;;;2.97;;
13432;SDS011;6789;47.678;9.158;2023-04-21T09:42:09;3.47;;;2.95;;
13432;SDS011;6789;47.678;9.158;2023-04-21T09:47:16;3.20;;;2.80;;
13432;SDS011;6789;47.678;9.158;2023-04-21T09:52:09;3.30;;;2.60;;
13432;SDS011;6789;47.678;9.158;2023-04-21T09:57:09;4.68;;;2.80;;
13432;SDS011;6789;47.678;9.158;2023-04-21T10:02:13;4.50;;;2.88;;
13432;SDS011;6789;47.678;9.158;2023-04-21T10:07:12;3.78;;;2.60;;
13432;SDS011;6789;47.678;9.158;2023-04-21T10:12:06;3.08;;;2.78;;
13432;SDS011;6789;47.678;9.158;2023-04-21T10:17:13;3.03;;;2.70;;
13432;SDS011;6789;47.678;9.158;2023-04-21T10:22:08;3.28;;;2.80;;
13432;SDS011;6789;47.678;9.158;2023-04-21T10:27:02;3.42;;;2.78;;
13432;SDS011;6789;47.678;9.158;2023-04-21T10:31:55;3.05;;;2.75;;
13432;SDS011;6789;47.678;9.158;2023-04-21T10:37:06;3.25;;;2.90;;
13432;SDS011;6789;47.678;9.158;2023-04-21T10:47:04;2.67;;;2.47;;
13432;SDS011;6789;47.678;9.158;2023-04-21T10:57:11;2.45;;;2.10;;
13432;SDS011;6789;47.678;9.158;2023-04-21T11:02:14;3.78;;;2.42;;
13432;SDS011;6789;47.678;9.158;2023-04-21T11:07:11;3.83;;;2.60;;
13432;SDS011;6789;47.678;9.158;2023-04-21T11:12:11;3.45;;;2.30;;
13432;SDS011;6789;47.678;9.158;2023-04-21T11:17:16;2.90;;;2.53;;
13432;SDS011;6789;47.678;9.158;2023-04-21T11:22:10;2.60;;;2.33;;
13432;SDS011;6789;47.678;9.158;2023-04-21T11:27:06;2.53;;;1.90;;
13432;SDS011;6789;47.678;9.158;2023-04-21T11:32:00;3.08;;;2.20;;
13432;SDS011;6789;47.678;9.158;2023-04-21T11:36:53;1.92;;;1.70;;
13432;SDS011;6789;47.678;9.158;2023-04-21T11:41:46;3.28;;;2.17;;
13432;SDS011;6789;47.678;9.158;2023-04-21T11:46:43;5.72;;;1.95;;
13432;SDS011;6789;47.678;9.158;2023-04-21T11:51:37;1.67;;;1.58;;
13432;SDS011;6789;47.678;9.158;2023-04-21T11:56:35;1.60;;;1.45;;
13432;SDS011;6789;47.678;9.158;2023-04-21T12:01:33;1.50;;;1.30;;
13432;SDS011;6789;47.678;9.158;2023-04-21T12:06:36;4.40;;;1.52;;
13432;SDS011;6789;47.678;9.158;2023-04-21T12:11:28;2.10;;;1.50;;
13432;SDS011;6789;47.678;9.158;2023-04-21T12:16:22;1.30;;;1.20;;
13432;SDS011;6789;47.678;9.158;2023-04-21T12:21:19;1.60;;;1.50;;
13432;SDS011;6789;47.678;9.158;2023-04-21T12:26:11;1.83;;;1.50;;
13432;SDS011;6789;47.678;9.158;2023-04-21T12:31:04;1.45;;;1.30;;
13432;SDS011;6789;47.678;9.158;2023-04-21T12:35:56;5.53;;;1.50;;
13432;SDS011;6789;47.678;9.158;2023-04-21T12:40:49;2.30;;;1.33;;
13432;SDS011;6789;47.678;9.158;2023-04-21T12:45:41;1.50;;;1.40;;
13432;SDS011;6789;47.678;9.158;2023-04-21T12:50:33;1.40;;;1.25;;
13432;SDS011;6789;47.678;9.158;2023-04-21T12:55:39;1.30;;;1.20;;
13432;SDS011;6789;47.678;9.158;2023-04-21T13:00:43;1.33;;;1.10;;
13432;SDS011;6789;47.678;9.158;2023-04-21T13:05:35;1.27;;;0.90;;
13432;SDS011;6789;47.678;9.158;2023-04-21T13:10:27;1.33;;;0.85;;
13432;SDS011;6789;47.678;9.158;2023-04-21T13:15:19;2.50;;;0.70;;
13432;SDS011;6789;47.678;9.158;2023-04-21T13:20:10;2.72;;;0.55;;
13432;SDS011;6789;47.678;9.158;2023-04-21T13:25:02;0.88;;;0.60;;
13432;SDS011;6789;47.678;9.158;2023-04-21T13:29:55;1.27;;;0.88;;
13432;SDS011;6789;47.678;9.158;2023-04-21T13:34:47;1.10;;;0.60;;
13432;SDS011;6789;47.678;9.158;2023-04-21T13:39:39;1.33;;;0.55;;
13432;SDS011;6789;47.678;9.158;2023-04-21T13:44:31;1.33;;;0.65;;
13432;SDS011;6789;47.678;9.158;2023-04-21T13:49:23;0.93;;;0.63;;
13432;SDS011;6789;47.678;9.158;2023-04-21T13:54:15;0.60;;;0.60;;
13432;SDS011;6789;47.678;9.158;2023-04-21T13:59:06;1.08;;;0.73;;
13432;SDS011;6789;47.678;9.158;2023-04-21T14:04:16;2.00;;;1.70;;
13432;SDS011;6789;47.678;9.158;2023-04-21T14:09:09;2.95;;;2.13;;
13432;SDS011;6789;47.678;9.158;2023-04-21T14:14:02;2.53;;;2.33;;
13432;SDS011;6789;47.678;9.158;2023-04-21T14:19:00;2.60;;;2.40;;
13432;SDS011;6789;47.678;9.158;2023-04-21T14:23:52;3.35;;;2.40;;
13432;SDS011;6789;47.678;9.158;2023-04-21T14:28:44;2.50;;;2.28;;
13432;SDS011;6789;47.678;9.158;2023-04-21T14:33:35;2.97;;;1.80;;
13432;SDS011;6789;47.678;9.158;2023-04-21T14:38:27;3.20;;;1.85;;
13432;SDS011;6789;47.678;9.158;2023-04-21T14:43:21;2.50;;;2.30;;
13432;SDS011;6789;47.678;9.158;2023-04-21T14:48:13;2.38;;;2.17;;
13432;SDS011;6789;47.678;9.158;2023-04-21T14:53:06;2.40;;;2.00;;
13432;SDS011;6789;47.678;9.158;2023-04-21T14:58:13;3.90;;;2.38;;
13432;SDS011;6789;47.678;9.158;2023-04-21T15:03:05;4.20;;;2.22;;
13432;SDS011;6789;47.678;9.158;2023-04-21T15:07:57;2.70;;;1.98;;
13432;SDS011;6789;47.678;9.158;2023-04-21T15:12:50;4.30;;;2.08;;
13432;SDS011;6789;47.678;9.158;2023-04-21T15:17:42;2.38;;;2.00;;
13432;SDS011;6789;47.678;9.158;2023-04-21T15:22:33;2.20;;;2.00;;
13432;SDS011;6789;47.678;9.158;2023-04-21T15:27:26;1.90;;;1.60;;
13432;SDS011;6789;47.678;9.158;2023-04-21T15:32:17;2.60;;;1.85;;
13432;SDS011;6789;47.678;9.158;2023-04-21T15:37:09;1.98;;;1.77;;
13432;SDS011;6789;47.678;9.158;2023-04-21T15:42:01;1.67;;;1.58;;
13432;SDS011;6789;47.678;9.158;2023-04-21T15:46:54;2.17;;;1.90;;
13432;SDS011;6789;47.678;9.158;2023-04-21T15:51:46;2.92;;;2.03;;
13432;SDS011;6789;47.678;9.158;2023-04-21T15:56:38;1.70;;;1.58;;
13432;SDS011;6789;47.678;9.158;2023-04-21T16:01:44;3.22;;;1.70;;
13432;SDS011;6789;47.678;9.158;2023-04-21T16:06:36;3.15;;;1.90;;
13432;SDS011;6789;47.678;9.158;2023-04-21T16:11:35;2.05;;;1.85;;
13432;SDS011;6789;47.678;9.158;2023-04-21T16:16:27;2.00;;;1.75;;
13432;SDS011;6789;47.678;9.158;2023-04-21T16:21:19;2.38;;;1.70;;
13432;SDS011;6789;47.678;9.158;2023-04-21T16:26:11;2.22;;;1.70;;
13432;SDS011;6789;47.678;9.158;2023-04-21T16:31:03;1.77;;;1.55;;
13432;SDS011;6789;47.678;9.158;2023-04-21T16:35:58;1.52;;;1.42;;
13432;SDS011;6789;47.678;9.158;2023-04-21T16:40:50;1.88;;;1.63;;
13432;SDS011;6789;47.678;9.158;2023-04-21T16:45:42;2.25;;;1.70;;
13432;SDS011;6789;47.678;9.158;2023-04-21T16:50:35;2.45;;;1.38;;
13432;SDS011;6789;47.678;9.158;2023-04-21T16:55:32;2.38;;;1.60;;
13432;SDS011;6789;47.678;9.158;2023-04-21T17:00:28;2.38;;;1.48;;
13432;SDS011;6789;47.678;9.158;2023-04-21T17:05:23;1.30;;;1.20;;
13432;SDS011;6789;47.678;9.158;2023-04-21T17:10:16;2.33;;;1.85;;
13432;SDS011;6789;47.678;9.158;2023-04-21T17:15:08;2.22;;;1.60;;
13432;SDS011;6789;47.678;9.158;2023-04-21T17:20:02;2.47;;;1.38;;
13432;SDS011;6789;47.678;9.158;2023-04-21T17:24:53;1.85;;;1.30;;
13432;SDS011;6789;47.678;9.158;2023-04-21T17:29:48;3.00;;;1.40;;
13432;SDS011;6789;47.678;9.158;2023-04-21T17:34:41;1.85;;;1.67;;
13432;SDS011;6789;47.678;9.158;2023-04-21T17:39:32;1.52;;;1.42;;
13432;SDS011;6789;47.678;9.158;2023-04-21T17:44:26;1.80;;;1.60;;
13432;SDS011;6789;47.678;9.158;2023-04-21T17:49:18;1.85;;;1.45;;
13432;SDS011;6789;47.678;9.158;2023-04-21T17:54:10;1.80;;;1.58;;
13432;SDS011;6789;47.678;9.158;2023-04-21T17:59:02;2.13;;;1.90;;
13432;SDS011;6789;47.678;9.158;2023-04-21T18:03:54;2.03;;;1.40;;
13432;SDS011;6789;47.678;9.158;2023-04-21T18:08:50;2.10;;;1.50;;
13432;SDS011;6789;47.678;9.158;2023-04-21T18:13:42;2.40;;;2.08;;
13432;SDS011;6789;47.678;9.158;2023-04-21T18:18:35;2.53;;;1.88;;
13432;SDS011;6789;47.678;9.158;2023-04-21T18:23:26;2.78;;;1.70;;
13432;SDS011;6789;47.678;9.158;2023-04-21T18:28:19;3.17;;;1.73;;
13432;SDS011;6789;47.678;9.158;2023-04-21T18:33:11;3.25;;;1.67;;
13432;SDS011;6789;47.678;9.158;2023-04-21T18:38:03;2.45;;;1.63;;
13432;SDS011;6789;47.678;9.158;2023-04-21T18:42:58;4.18;;;1.95;;
13432;SDS011;6789;47.678;9.158;2023-04-21T18:47:50;3.00;;;2.10;;
13432;SDS011;6789;47.678;9.158;2023-04-21T18:52:42;3.05;;;2.75;;
13432;SDS011;6789;47.678;9.158;2023-04-21T18:57:35;3.33;;;2.58;;
13432;SDS011;6789;47.678;9.158;2023-04-21T19:02:27;4.20;;;2.85;;
13432;SDS011;6789;47.678;9.158;2023-04-21T19:07:20;5.05;;;2.92;;
13432;SDS011;6789;47.678;9.158;2023-04-21T19:12:12;11.15;;;7.43;;
13432;SDS011;6789;47.678;9.158;2023-04-21T19:17:04;8.95;;;6.95;;
13432;SDS011;6789;47.678;9.158;2023-04-21T19:21:57;12.45;;;8.95;;
13432;SDS011;6789;47.678;9.158;2023-04-21T19:26:50;5.05;;;4.03;;
13432;SDS011;6789;47.678;9.158;2023-04-21T19:31:41;4.80;;;2.83;;
13432;SDS011;6789;47.678;9.158;2023-04-21T19:36:33;4.20;;;3.33;;
13432;SDS011;6789;47.678;9.158;2023-04-21T19:41:25;4.33;;;3.27;;
13432;SDS011;6789;47.678;9.158;2023-04-21T19:46:17;2.78;;;2.33;;
13432;SDS011;6789;47.678;9.158;2023-04-21T19:51:09;5.25;;;2.60;;
13432;SDS011;6789;47.678;9.158;2023-04-21T19:56:00;3.43;;;2.60;;
13432;SDS011;6789;47.678;9.158;2023-04-21T20:00:52;4.25;;;2.33;;
13432;SDS011;6789;47.678;9.158;2023-04-21T20:05:44;3.37;;;2.60;;
13432;SDS011;6789;47.678;9.158;2023-04-21T20:10:36;4.67;;;2.60;;
13432;SDS011;6789;47.678;9.158;2023-04-21T20:15:33;4.57;;;2.60;;
13432;SDS011;6789;47.678;9.158;2023-04-21T20:20:25;3.60;;;2.73;;
13432;SDS011;6789;47.678;9.158;2023-04-21T20:25:20;4.50;;;2.70;;
13432;SDS011;6789;47.678;9.158;2023-04-21T20:30:12;4.17;;;2.87;;
13432;SDS011;6789;47.678;9.158;2023-04-21T20:35:04;5.20;;;3.13;;
13432;SDS011;6789;47.678;9.158;2023-04-21T20:39:58;4.10;;;2.97;;
13432;SDS011;6789;47.678;9.158;2023-04-21T20:44:52;4.37;;;3.00;;
13432;SDS011;6789;47.678;9.158;2023-04-21T20:49:43;3.80;;;2.70;;
13432;SDS011;6789;47.678;9.158;2023-04-21T20:54:37;3.60;;;2.90;;
13432;SDS011;6789;47.678;9.158;2023-04-21T20:59:29;4.13;;;2.93;;
13432;SDS011;6789;47.678;9.158;2023-04-21T21:04:21;3.57;;;2.80;;
13432;SDS011;6789;47.678;9.158;2023-04-21T21:09:13;4.97;;;3.30;;
13432;SDS011;6789;47.678;9.158;2023-04-21T21:14:07;5.63;;;3.17;;
13432;SDS011;6789;47.678;9.158;2023-04-21T21:18:58;4.07;;;3.30;;
13432;SDS011;6789;47.678;9.158;2023-04-21T21:23:50;3.83;;;2.80;;
13432;SDS011;6789;47.678;9.158;2023-04-21T21:28:42;6.07;;;3.50;;
13432;SDS011;6789;47.678;9.158;2023-04-21T21:33:34;4.33;;;3.17;;
13432;SDS011;6789;47.678;9.158;2023-04-21T21:38:26;5.23;;;3.10;;
13432;SDS011;6789;47.678;9.158;2023-04-21T21:43:18;6.73;;;3.30;;
13432;SDS011;6789;47.678;9.158;2023-04-21T21:48:09;7.50;;;3.87;;
13432;SDS011;6789;47.678;9.158;2023-04-21T21:53:01;5.47;;;3.93;;
13432;SDS011;6789;47.678;9.158;2023-04-21T21:57:53;4.43;;;3.90;;
13432;SDS011;6789;47.678;9.158;2023-04-21T22:02:45;4.03;;;3.60;;
13432;SDS011;6789;47.678;9.158;2023-04-21T22:07:38;4.33;;;3.43;;
13432;SDS011;6789;47.678;9.158;2023-04-21T22:12:37;7.73;;;4.20;;
13432;SDS011;6789;47.678;9.158;2023-04-21T22:17:29;4.60;;;4.03;;
13432;SDS011;6789;47.678;9.158;2023-04-21T22:22:21;5.00;;;3.90;;
13432;SDS011;6789;47.678;9.158;2023-04-21T22:27:13;5.50;;;3.90;;
13432;SDS011;6789;47.678;9.158;2023-04-21T22:32:07;4.77;;;3.93;;
13432;SDS011;6789;47.678;9.158;2023-04-21T22:37:00;5.77;;;4.00;;
13432;SDS011;6789;47.678;9.158;2023-04-21T22:41:52;5.80;;;4.50;;
13432;SDS011;6789;47.678;9.158;2023-04-21T22:46:44;5.47;;;4.10;;
13432;SDS011;6789;47.678;9.158;2023-04-21T22:51:37;4.73;;;3.57;;
13432;SDS011;6789;47.678;9.158;2023-04-21T22:56:28;5.47;;;4.20;;
13432;SDS011;6789;47.678;9.158;2023-04-21T23:01:21;4.60;;;4.10;;
13432;SDS011;6789;47.678;9.158;2023-04-21T23:06:13;6.20;;;3.90;;
13432;SDS011;6789;47.678;9.158;2023-04-21T23:11:05;6.43;;;4.13;;
13432;SDS011;6789;47.678;9.158;2023-04-21T23:15:58;5.77;;;4.13;;
13432;SDS011;6789;47.678;9.158;2023-04-21T23:20:49;5.10;;;4.30;;
13432;SDS011;6789;47.678;9.158;2023-04-21T23:25:42;6.27;;;4.20;;
13432;SDS011;6789;47.678;9.158;2023-04-21T23:30:34;6.20;;;4.50;;
13432;SDS011;6789;47.678;9.158;2023-04-21T23:35:26;5.47;;;4.30;;
13432;SDS011;6789;47.678;9.158;2023-04-21T23:40:19;5.27;;;4.30;;
13432;SDS011;6789;47.678;9.158;2023-04-21T23:45:11;5.27;;;4.27;;
13432;SDS011;6789;47.678;9.158;2023-04-21T23:50:03;5.80;;;4.20;;
13432;SDS011;6789;47.678;9.158;2023-04-21T23:54:55;6.60;;;4.23;;
13432;SDS011;6789;47.678;9.158;2023-04-21T23:59:47;6.57;;;4.40;;
